Main page
METAR-TAF:

METAR-TAF

Airports :

Kenneth Kaunda International Airport

Lusaka, Zambia

latitude: 15-19-51S, longitude: 028-27-09E, elevation: 1152 m

Current weather observation

The report was made 23 minutes ago, at 04:00 UTC
Wind 5 kt from the East/Southeast
Temperature 18°C
Humidity 59%
Pressure 1019 hPa
Visibility 10 km or more
no clouds below 1500 m and no cumulonimbus

METAR: FLKK 170400Z 11005KT CAVOK 18/10 Q1019

Time: 06:23 (04:23 UTC)


TAF: missing

Weather observations and forecasts of more than 4000 airports (METAR and TAF reports).

The available stations are represented by yellow and red dots on the map.

Hover mouse over dot to see the name of the station.

Then click to see weather observations and forecasts.

To change the map : click on the green buttons with a black cross to zoom in, on the green button with a dash to zoom out, or on the green arrows for adjacent maps.


METAR-TAF: